Latest Weather Observations for Aireys Inlet

IDV60801

Issued at 8:02 pm EST Tuesday 28 April 2015 (issued every 30 minutes, with the page automatically refreshed every 10 minutes)

About weather observations | Map of weather stations | Latest weather observations for VIC | Other Formats
Station Details ID: 090180 Name: AIREYS INLET Lat: -38.46 Lon: 144.09 Height: 95.0 m
Data from the previous 72 hours. | See also: Recent months at Aireys Inlet
Date/Time
EST
Temp
°C
App
Temp
°C
Dew
Point
Rel
Hum
%
Delta-T
°C
Wind Press
QNH
hPa
Press
MSL
hPa
Rain
since 9 am
mm
Dir
 
Spd
km/h
Gust
km/h
Spd
kts
Gust
kts
28/08:00pm 11.3 8.1 8.3 82 1.5 SW 15 20 8 11 - - 0.0
28/07:30pm 12.5 8.9 9.7 83 1.4 SW 19 37 10 20 - - 0.0
28/07:00pm 12.8 9.2 8.5 75 2.2 SSW 17 26 9 14 - - 0.0
28/06:30pm 12.8 10.1 7.3 69 2.7 S 11 19 6 10 - - 0.0
28/06:00pm 12.7 9.9 7.0 68 2.8 SSW 11 17 6 9 - - 0.0
28/05:30pm 12.7 10.3 5.4 61 3.4 S 7 11 4 6 - - 0.0
28/05:00pm 13.0 9.1 5.4 60 3.6 S 15 26 8 14 - - 0.0
28/04:30pm 13.4 9.6 5.8 60 3.6 S 15 20 8 11 - - 0.0
28/04:00pm 14.0 9.5 6.1 59 3.8 SSW 19 30 10 16 - - 0.0
28/03:30pm 13.4 9.2 5.8 60 3.6 SSW 17 28 9 15 - - 0.0
28/03:00pm 13.7 10.0 6.3 61 3.6 S 15 26 8 14 - - 0.0
28/02:30pm 13.9 10.3 6.7 62 3.5 S 15 22 8 12 - - 0.0
28/02:00pm 14.1 11.0 7.2 63 3.4 S 13 20 7 11 - - 0.0
28/01:30pm 14.2 11.1 7.3 63 3.4 S 13 20 7 11 - - 0.0
28/01:00pm 14.2 11.0 6.8 61 3.6 S 13 19 7 10 - - 0.0
28/12:30pm 14.1 11.5 7.6 65 3.2 SSW 11 17 6 9 - - 0.0
28/12:00pm 14.2 10.9 8.2 67 3.0 SSW 15 22 8 12 - - 0.0
28/11:30am 16.0 12.7 8.2 60 4.0 S 15 22 8 12 - - 0.0
28/11:00am 15.3 11.5 7.6 60 3.8 S 17 28 9 15 - - 0.0
28/10:30am 14.1 10.1 6.7 61 3.6 S 17 24 9 13 - - 0.0
28/10:00am 14.2 10.7 7.3 63 3.4 S 15 22 8 12 - - 0.0
28/09:30am 13.2 9.4 7.6 69 2.8 S 17 26 9 14 - - 0.0
28/09:00am 12.8 8.7 7.7 71 2.5 S 19 28 10 15 - - 3.6
28/08:30am 12.5 9.1 7.8 73 2.3 SSE 15 24 8 13 - - 3.6
28/08:00am 11.8 9.1 8.8 82 1.5 S 13 20 7 11 - - 3.6
28/07:30am 11.8 8.0 9.0 83 1.4 SSW 19 26 10 14 - - 3.6
28/07:00am 11.2 7.3 9.5 89 0.9 SSW 20 28 11 15 - - 3.6
28/06:30am 10.9 7.5 9.0 88 0.9 S 17 28 9 15 - - 3.6
28/06:00am 11.1 7.8 9.4 89 0.9 SSW 17 28 9 15 - - 3.6
28/05:30am 10.3 7.7 9.4 94 0.5 WSW 13 20 7 11 - - 3.4
28/05:00am 10.5 7.5 9.3 92 0.6 WSW 15 24 8 13 - - 3.2
28/04:30am 11.1 8.1 9.2 88 1.0 WSW 15 24 8 13 - - 3.2
28/04:00am 11.7 8.3 7.6 76 2.0 S 15 22 8 12 - - 3.2
28/03:30am 11.5 8.5 7.8 78 1.8 S 13 22 7 12 - - 3.2
28/03:00am 11.8 7.7 7.7 76 2.0 SSW 19 28 10 15 - - 3.2
28/02:30am 11.9 8.4 8.6 80 1.6 S 17 28 9 15 - - 3.2
28/02:00am 11.8 8.6 8.5 80 1.6 S 15 24 8 13 - - 3.2
28/01:30am 11.8 8.1 7.9 77 1.9 SSW 17 26 9 14 - - 3.2
28/01:00am 11.7 8.2 8.6 81 1.5 SSW 17 26 9 14 - - 3.2
28/12:30am 10.8 7.2 8.4 85 1.2 SSW 17 28 9 15 - - 3.2
28/12:00am 10.9 8.4 9.7 92 0.6 SSW 13 24 7 13 - - 3.2
 
Date/Time
EST
Temp
°C
App
Temp
°C
Dew
Point
Rel
Hum
%
Delta-T
°C
Wind Press
QNH
hPa
Press
MSL
hPa
Rain
since 9 am
mm
Dir
 
Spd
km/h
Gust
km/h
Spd
kts
Gust
kts
27/11:30pm 10.9 8.3 9.5 91 0.7 SSE 13 33 7 18 - - 3.0
27/11:00pm 10.5 7.2 9.7 95 0.4 WSW 17 24 9 13 - - 2.6
27/10:30pm 10.0 7.3 8.8 92 0.6 W 13 17 7 9 - - 0.8
27/10:00pm 9.8 6.3 8.9 94 0.4 W 17 24 9 13 - - 0.6
27/09:30pm 10.3 6.2 8.7 90 0.8 WSW 20 32 11 17 - - 0.6
27/09:00pm 10.2 7.5 8.8 91 0.7 WSW 13 22 7 12 - - 0.4
27/08:30pm 10.5 7.2 8.1 85 1.2 W 15 20 8 11 - - 0.0
27/08:00pm 10.7 7.8 8.3 85 1.2 W 13 20 7 11 - - 0.0
27/07:30pm 11.0 8.4 7.7 80 1.6 WSW 11 19 6 10 - - 0.0
27/07:00pm 11.3 8.7 7.6 78 1.8 W 11 15 6 8 - - 0.0
27/06:30pm 11.8 8.8 7.5 75 2.1 WSW 13 19 7 10 - - 0.0
27/06:00pm 11.8 8.0 7.7 76 2.0 SW 17 28 9 15 - - 0.0
27/05:30pm 12.1 8.4 7.8 75 2.1 WSW 17 24 9 13 - - 0.0
27/05:00pm 12.4 8.1 7.9 74 2.2 WSW 20 28 11 15 - - 0.0
27/04:30pm 12.8 8.6 8.3 74 2.2 SW 20 33 11 18 - - 0.0
27/04:00pm 12.8 8.6 7.5 70 2.6 SW 19 28 10 15 - - 0.0
27/03:30pm 13.5 7.4 8.1 70 2.7 SW 30 43 16 23 - - 0.0
27/03:00pm 13.3 9.3 8.4 72 2.5 SW 19 28 10 15 - - 0.0
27/02:30pm 13.1 7.8 8.6 74 2.3 WSW 26 37 14 20 - - 0.0
27/02:00pm 13.3 8.7 8.2 71 2.5 SW 22 33 12 18 - - 0.0
27/01:30pm 13.7 8.2 9.2 74 2.3 SW 28 41 15 22 - - 0.0
27/01:00pm 13.6 8.3 8.4 71 2.6 SW 26 37 14 20 - - 0.0
27/12:30pm 14.5 10.1 8.9 69 2.9 SW 22 33 12 18 - - 0.0
27/12:00pm 13.3 9.1 8.4 72 2.5 WSW 20 32 11 17 - - 0.0
27/11:30am 13.8 9.8 8.4 70 2.7 WSW 19 30 10 16 - - 0.0
27/11:00am 12.8 9.8 9.4 80 1.7 SW 15 20 8 11 - - 0.0
27/10:30am 13.4 9.3 8.0 70 2.7 SW 19 28 10 15 - - 0.0
27/10:00am 12.5 8.3 8.4 76 2.0 WSW 20 26 11 14 - - 0.0
27/09:30am 12.8 8.8 8.1 73 2.3 WSW 19 28 10 15 - - 0.0
27/09:00am 11.5 8.9 7.8 78 1.8 W 11 15 6 8 - - 0.2
27/08:30am 11.4 8.1 7.9 79 1.7 WSW 15 24 8 13 - - -
27/08:00am 10.3 7.3 7.7 84 1.3 WNW 13 20 7 11 - - -
27/07:30am 9.7 6.7 7.8 88 0.9 WNW 13 19 7 10 - - -
27/07:00am 10.9 5.9 8.1 83 1.4 WSW 24 35 13 19 - - -
27/06:30am 10.5 6.7 7.6 82 1.4 W 17 24 9 13 - - -
27/06:00am 10.0 7.3 7.4 84 1.2 WNW 11 17 6 9 - - -
27/05:30am 10.7 6.5 7.6 81 1.5 WSW 19 28 10 15 - - -
27/05:00am 10.4 6.6 7.6 83 1.3 WSW 17 28 9 15 - - -
27/04:30am 9.8 7.1 7.4 85 1.1 WNW 11 15 6 8 - - -
27/04:00am 9.8 7.2 7.6 86 1.1 W 11 15 6 8 - - -
27/03:30am 10.1 7.6 8.0 87 1.0 WSW 11 17 6 9 - - -
27/03:00am 10.2 7.7 8.1 87 1.0 W 11 15 6 8 - - 0.0
27/02:30am 10.3 6.5 7.7 84 1.3 W 17 22 9 12 - - -
27/02:00am 10.0 6.7 7.9 87 1.0 W 15 24 8 13 - - -
27/01:30am 10.1 7.2 8.0 87 1.0 WNW 13 17 7 9 - - -
27/01:00am 10.0 6.6 7.8 86 1.1 W 15 22 8 12 - - -
27/12:30am 9.5 6.1 7.6 88 0.9 WNW 15 19 8 10 - - -
27/12:00am 10.8 8.0 8.4 85 1.2 WSW 13 20 7 11 - - -
 
Date/Time
EST
Temp
°C
App
Temp
°C
Dew
Point
Rel
Hum
%
Delta-T
°C
Wind Press
QNH
hPa
Press
MSL
hPa
Rain
since 9 am
mm
Dir
 
Spd
km/h
Gust
km/h
Spd
kts
Gust
kts
26/11:30pm 10.1 7.1 7.5 84 1.2 WSW 13 19 7 10 - - -
26/11:00pm 10.1 6.3 7.5 84 1.2 W 17 19 9 10 - - -
26/10:30pm 10.3 6.9 7.5 83 1.3 W 15 20 8 11 - - -
26/10:00pm 10.4 6.6 7.6 83 1.3 W 17 20 9 11 - - -
26/09:30pm 10.3 6.8 7.4 82 1.4 W 15 19 8 10 - - -
26/09:00pm 10.3 6.5 7.4 82 1.4 W 17 22 9 12 - - 0.0
26/08:30pm 10.0 6.9 7.4 84 1.2 W 13 19 7 10 - - -
26/08:00pm 10.4 7.4 7.5 82 1.4 W 13 19 7 10 - - -
26/07:30pm 10.6 7.5 7.3 80 1.6 W 13 20 7 11 - - -
26/07:00pm 10.8 7.7 7.3 79 1.7 W 13 20 7 11 - - -
26/06:30pm 11.1 7.5 6.8 75 2.0 W 15 20 8 11 - - -
26/06:00pm 11.7 7.1 6.4 70 2.5 WSW 20 35 11 19 - - -
26/05:30pm 12.0 7.4 5.4 64 3.1 WSW 19 26 10 14 - - -
26/05:00pm 12.6 7.6 6.4 66 3.0 WSW 22 33 12 18 - - -
26/04:30pm 14.1 9.9 7.6 65 3.2 WSW 19 30 10 16 - - -
26/04:00pm 13.5 8.8 7.7 68 2.9 SW 22 35 12 19 - - -
26/03:30pm 12.9 7.2 6.5 65 3.1 WSW 26 35 14 19 - - -
26/01:00pm 13.0 7.8 8.9 76 2.1 SW 26 44 14 24 - - -
26/12:30pm 13.5 7.6 7.7 68 2.9 WSW 28 37 15 20 - - -
26/12:00pm 13.0 - 9.1 77 2.0 - - - - - - - -
26/11:00am 13.5 8.8 7.9 69 2.8 WSW 22 35 12 19 - - 0.2
26/10:30am 12.0 7.5 8.5 79 1.7 WSW 22 33 12 18 - - 0.2
26/10:00am 11.0 7.6 9.1 88 1.0 W 17 26 9 14 - - 0.2
26/09:30am 10.6 5.9 9.2 91 0.7 WSW 24 33 13 18 - - 0.2
26/09:19am 10.7 5.3 9.5 92 0.6 WSW 28 46 15 25 - - 0.0
26/09:00am 11.1 6.7 8.8 86 1.1 WSW 22 35 12 19 - - 19.6
26/08:30am 10.2 6.3 8.8 91 0.7 WSW 19 26 10 14 - - 19.6
26/08:00am 10.0 5.8 8.4 90 0.8 WSW 20 30 11 16 - - 19.6
26/07:30am 10.2 5.1 9.1 93 0.5 SW 26 39 14 21 - - 19.6
26/07:00am 10.4 5.1 8.3 87 1.0 WSW 26 41 14 22 - - 19.2
26/06:30am 9.7 5.4 7.8 88 0.9 WSW 20 30 11 16 - - 19.2
26/06:00am 9.9 5.0 8.5 91 0.7 WSW 24 39 13 21 - - 19.2
26/05:30am 9.6 5.5 8.5 93 0.5 WSW 20 28 11 15 - - 19.2
26/05:00am 10.1 4.9 8.9 92 0.6 SSW 26 39 14 21 - - 19.0
26/04:30am 9.8 5.3 8.4 91 0.7 WSW 22 35 12 19 - - 18.8
26/04:00am 9.8 5.6 8.2 90 0.8 WSW 20 32 11 17 - - 18.8
26/03:30am 10.6 6.2 8.9 89 0.8 WSW 22 33 12 18 - - 18.8
26/03:04am 11.0 5.3 8.4 84 1.3 SW 28 48 15 26 - - 18.8
26/03:00am 10.9 7.0 8.7 86 1.1 WSW 19 48 10 26 - - 18.8
26/02:30am 10.6 4.8 7.8 83 1.4 SSW 28 44 15 24 - - 18.8
26/02:27am 10.6 4.8 8.0 84 1.3 SSW 28 44 15 24 - - 18.8
26/02:00am 10.3 7.3 9.4 94 0.5 WSW 15 22 8 12 - - 18.8
26/01:37am 10.8 5.1 8.2 84 1.3 SW 28 46 15 25 - - 18.4
26/01:30am 11.2 4.3 8.8 85 1.2 SW 35 48 19 26 - - 18.4
26/01:00am 11.7 5.4 7.2 74 2.2 SW 30 46 16 25 - - 18.4
26/12:44am 11.9 5.6 7.6 75 2.1 SW 30 50 16 27 - - 18.4
26/12:30am 12.2 6.6 7.3 72 2.4 SSW 26 43 14 23 - - 18.4
26/12:00am 12.5 6.6 7.4 71 2.5 SSW 28 46 15 25 - - 18.4
 
Date/Time
EST
Temp
°C
App
Temp
°C
Dew
Point
Rel
Hum
%
Delta-T
°C
Wind Press
QNH
hPa
Press
MSL
hPa
Rain
since 9 am
mm
Dir
 
Spd
km/h
Gust
km/h
Spd
kts
Gust
kts
25/11:30pm 12.3 6.3 7.2 71 2.5 SSW 28 41 15 22 - - 18.4
25/11:00pm 12.5 6.0 6.5 67 2.9 SW 30 44 16 24 - - 18.4
25/10:30pm 12.4 6.0 7.1 70 2.6 SSW 30 44 16 24 - - 18.4
25/10:00pm 12.2 5.6 6.0 66 2.9 SSW 30 43 16 23 - - 18.4
25/09:49pm 12.3 5.8 6.6 68 2.7 SSW 30 50 16 27 - - 18.4
25/09:30pm 12.2 5.6 7.7 74 2.2 SSW 32 48 17 26 - - 18.4
25/09:12pm 12.3 5.7 7.8 74 2.2 SSW 32 52 17 28 - - 18.4
25/09:00pm 12.2 6.1 8.3 77 1.9 SSW 30 46 16 25 - - 18.4
25/08:30pm 12.0 7.4 9.7 86 1.2 SSW 24 43 13 23 - - 18.4

Other Formats:

Comma delimited format used in spreadsheet applications
http://www.bom.gov.au/fwo/IDV60801/IDV60801.94846.axf

JavaScript Object Notation format (JSON) in row-major order
http://www.bom.gov.au/fwo/IDV60801/IDV60801.94846.json